Time;durP1;ratioP1;P1;durP2;ratioP2;P2;SDS_P1;SDS_P2;PMS_P1;PMS_P2;Temp;Humidity;BMP_temperature;BMP_pressure;BME280_temperature;BME280_humidity;BME280_pressure;Samples;Min_cycle;Max_cycle;Signal;HPM_P1;HPM_P2
2022/10/08 00:01:05;;;;;;;4.50;2.77;;;12.30;99.90;;;;;;481282;247;28312;-78
2022/10/08 00:03:06;;;;;;;4.70;3.13;;;12.30;99.90;;;;;;481206;247;28046;-79
2022/10/08 00:05:07;;;;;;;3.33;3.00;;;12.40;99.90;;;;;;481198;247;28222;-78
2022/10/08 00:07:09;;;;;;;3.10;2.80;;;12.50;99.90;;;;;;481047;246;28208;-79
2022/10/08 00:09:10;;;;;;;4.17;3.10;;;12.50;99.90;;;;;;481082;247;28732;-79
2022/10/08 00:11:12;;;;;;;3.50;3.20;;;12.50;99.90;;;;;;481170;247;28800;-79
2022/10/08 00:13:12;;;;;;;3.50;2.70;;;12.50;99.90;;;;;;481190;247;28712;-78
2022/10/08 00:15:14;;;;;;;3.37;3.07;;;12.50;99.90;;;;;;481291;247;28290;-78
2022/10/08 00:17:15;;;;;;;4.37;2.90;;;12.50;99.90;;;;;;481102;243;28063;-78
2022/10/08 00:19:16;;;;;;;3.77;3.13;;;12.50;99.90;;;;;;481212;247;28181;-79
2022/10/08 00:21:17;;;;;;;3.97;3.03;;;12.50;99.90;;;;;;481207;247;28139;-80
2022/10/08 00:23:19;;;;;;;3.13;2.83;;;12.40;99.90;;;;;;481133;247;28101;-79
2022/10/08 00:25:20;;;;;;;3.53;3.03;;;12.50;99.90;;;;;;481060;247;28188;-79
2022/10/08 00:27:22;;;;;;;3.97;3.63;;;12.50;99.90;;;;;;481154;243;28394;-78
2022/10/08 00:29:22;;;;;;;3.60;3.30;;;12.50;99.90;;;;;;481180;247;28348;-78
2022/10/08 00:31:24;;;;;;;3.37;3.07;;;12.50;99.90;;;;;;481284;246;28202;-79
2022/10/08 00:33:25;;;;;;;3.00;2.73;;;12.40;99.90;;;;;;481324;247;28803;-79
2022/10/08 00:35:26;;;;;;;3.70;3.20;;;12.30;99.90;;;;;;481224;247;28468;-79
2022/10/08 00:37:27;;;;;;;8.63;2.90;;;12.30;99.90;;;;;;481267;246;28750;-79
2022/10/08 00:39:29;;;;;;;4.63;3.43;;;12.30;99.90;;;;;;481255;246;28081;-79
2022/10/08 00:41:30;;;;;;;3.53;2.87;;;12.20;99.90;;;;;;481367;247;28200;-79
2022/10/08 00:43:32;;;;;;;3.70;3.40;;;12.20;99.90;;;;;;481414;247;27986;-79
2022/10/08 00:45:32;;;;;;;3.83;3.23;;;12.10;99.90;;;;;;481435;247;28223;-78
2022/10/08 00:47:37;;;;;;;2.83;2.63;;;12.10;99.90;;;;;;481420;246;28179;-78
2022/10/08 00:49:38;;;;;;;3.80;3.00;;;12.10;99.90;;;;;;481337;246;28007;-79
2022/10/08 00:51:39;;;;;;;3.43;2.90;;;12.10;99.90;;;;;;481116;247;28676;-78
2022/10/08 00:53:40;;;;;;;4.07;3.43;;;12.10;99.90;;;;;;481139;247;28643;-78
2022/10/08 00:55:42;;;;;;;4.43;3.30;;;12.10;99.90;;;;;;481228;246;27869;-78
2022/10/08 00:57:43;;;;;;;3.90;3.10;;;12.10;99.90;;;;;;481163;246;28085;-79
2022/10/08 00:59:44;;;;;;;4.00;2.90;;;12.10;99.90;;;;;;481257;247;27830;-78
2022/10/08 01:01:45;;;;;;;3.23;2.93;;;12.10;99.90;;;;;;481364;246;27982;-79
2022/10/08 01:03:47;;;;;;;5.50;3.20;;;12.20;99.90;;;;;;481228;247;27972;-78
2022/10/08 01:05:48;;;;;;;3.70;3.23;;;12.20;99.90;;;;;;481313;247;27985;-78
2022/10/08 01:07:49;;;;;;;3.40;2.70;;;12.20;99.90;;;;;;481179;246;28130;-77
2022/10/08 01:09:50;;;;;;;2.80;2.60;;;12.20;99.90;;;;;;481363;247;28023;-80
2022/10/08 01:11:52;;;;;;;2.97;2.77;;;12.20;99.90;;;;;;481246;246;28065;-78
2022/10/08 01:13:53;;;;;;;3.77;3.30;;;12.20;99.90;;;;;;481079;247;28764;-78
2022/10/08 01:15:54;;;;;;;6.03;2.87;;;12.20;99.90;;;;;;481402;247;28707;-78
2022/10/08 01:17:55;;;;;;;3.30;3.00;;;12.20;99.90;;;;;;481417;247;28632;-78
2022/10/08 01:19:57;;;;;;;3.00;2.73;;;12.20;99.90;;;;;;481237;247;28593;-79
2022/10/08 01:21:58;;;;;;;3.37;3.00;;;12.20;99.90;;;;;;481230;247;28108;-78
2022/10/08 01:23:59;;;;;;;4.30;3.17;;;12.20;99.90;;;;;;481309;247;28298;-77
2022/10/08 01:26:00;;;;;;;3.20;3.00;;;12.10;99.90;;;;;;481224;247;28090;-79
2022/10/08 01:28:02;;;;;;;3.30;3.00;;;12.10;99.90;;;;;;481147;247;28140;-78
2022/10/08 01:30:04;;;;;;;3.10;2.80;;;12.10;99.90;;;;;;481201;247;28091;-79
2022/10/08 01:32:04;;;;;;;3.17;2.87;;;12.10;99.90;;;;;;481109;247;28202;-79
2022/10/08 01:34:06;;;;;;;2.90;2.70;;;12.10;99.90;;;;;;481194;247;28238;-79
2022/10/08 01:36:07;;;;;;;3.40;2.90;;;12.00;99.90;;;;;;481157;247;28028;-78
2022/10/08 01:38:08;;;;;;;3.63;3.00;;;12.00;99.90;;;;;;481119;246;28705;-79
2022/10/08 01:40:09;;;;;;;3.37;3.07;;;11.90;99.90;;;;;;481233;247;28430;-80
2022/10/08 01:42:10;;;;;;;3.00;2.70;;;11.90;99.90;;;;;;481273;246;28593;-79
2022/10/08 01:44:12;;;;;;;3.50;3.20;;;11.80;99.90;;;;;;481282;247;28032;-78
2022/10/08 01:46:13;;;;;;;3.57;3.27;;;11.80;99.90;;;;;;481174;247;28040;-79
2022/10/08 01:48:14;;;;;;;3.10;2.90;;;11.80;99.90;;;;;;481156;246;28182;-79
2022/10/08 01:50:15;;;;;;;3.37;3.00;;;11.70;99.90;;;;;;481155;247;27941;-78
2022/10/08 01:52:17;;;;;;;5.57;3.17;;;11.70;99.90;;;;;;481411;247;28020;-80
2022/10/08 01:54:18;;;;;;;3.10;2.90;;;11.70;99.90;;;;;;481496;247;27948;-79
2022/10/08 01:56:19;;;;;;;3.80;3.00;;;11.70;99.90;;;;;;481244;247;27963;-79
2022/10/08 01:58:20;;;;;;;3.57;3.27;;;11.70;99.90;;;;;;481463;247;28075;-78
2022/10/08 02:00:22;;;;;;;3.10;2.80;;;11.70;99.90;;;;;;481292;247;27971;-79
2022/10/08 02:02:23;;;;;;;3.97;3.10;;;11.60;99.90;;;;;;481413;247;28530;-79
2022/10/08 02:04:33;;;;;;;3.10;2.80;;;11.60;99.90;;;;;;481438;247;27967;-79
2022/10/08 02:06:35;;;;;;;3.23;2.50;;;11.60;99.90;;;;;;481383;246;28413;-78
2022/10/08 02:08:36;;;;;;;3.93;3.40;;;11.60;99.90;;;;;;481316;247;28348;-80
2022/10/08 02:10:37;;;;;;;3.50;3.20;;;11.50;99.90;;;;;;481350;246;28047;-79
2022/10/08 02:12:41;;;;;;;3.23;2.93;;;11.50;99.90;;;;;;481343;247;27886;-79
2022/10/08 02:14:42;;;;;;;4.60;3.20;;;11.50;99.90;;;;;;481337;246;27873;-79
2022/10/08 02:16:44;;;;;;;3.60;3.03;;;11.50;99.90;;;;;;481346;247;27956;-79
2022/10/08 02:18:45;;;;;;;4.40;3.00;;;11.50;99.90;;;;;;481425;247;27756;-79
2022/10/08 02:20:46;;;;;;;2.77;2.57;;;11.50;99.90;;;;;;481567;247;27727;-79
2022/10/08 02:22:47;;;;;;;4.30;3.03;;;11.50;99.90;;;;;;481434;247;27997;-79
2022/10/08 02:24:49;;;;;;;3.50;3.17;;;11.50;99.90;;;;;;481428;247;28562;-79
2022/10/08 02:26:50;;;;;;;4.50;3.50;;;11.40;99.90;;;;;;481473;246;27930;-78
2022/10/08 02:28:51;;;;;;;3.50;3.20;;;11.40;99.90;;;;;;481284;247;28442;-80
2022/10/08 02:30:52;;;;;;;3.40;3.10;;;11.40;99.90;;;;;;481566;247;27839;-80
2022/10/08 02:32:54;;;;;;;3.10;2.87;;;11.40;99.90;;;;;;481412;247;27870;-79
2022/10/08 02:34:55;;;;;;;2.73;2.53;;;11.40;99.90;;;;;;481392;247;27953;-80
2022/10/08 02:36:56;;;;;;;3.37;3.07;;;11.40;99.90;;;;;;481430;243;27742;-79
2022/10/08 02:38:57;;;;;;;4.70;3.40;;;11.40;99.90;;;;;;481534;247;27995;-79
2022/10/08 02:40:59;;;;;;;3.87;2.97;;;11.40;99.90;;;;;;481543;247;27871;-79
2022/10/08 02:43:00;;;;;;;4.97;2.77;;;11.40;99.90;;;;;;481490;247;28012;-79
2022/10/08 02:45:01;;;;;;;3.60;3.17;;;11.40;99.90;;;;;;481489;247;27850;-79
2022/10/08 02:47:03;;;;;;;3.70;3.13;;;11.50;99.90;;;;;;481495;246;28058;-80
2022/10/08 02:49:04;;;;;;;4.00;3.33;;;11.50;99.90;;;;;;481594;247;28469;-79
2022/10/08 02:51:05;;;;;;;6.00;3.20;;;11.50;99.90;;;;;;481600;247;28678;-79
2022/10/08 02:53:06;;;;;;;3.33;3.03;;;11.50;99.90;;;;;;481744;246;28491;-79
2022/10/08 02:55:07;;;;;;;4.50;3.30;;;11.50;99.90;;;;;;481761;247;27870;-80
2022/10/08 02:57:09;;;;;;;5.77;3.53;;;11.50;99.90;;;;;;481557;247;27922;-80
2022/10/08 02:59:10;;;;;;;4.10;3.10;;;11.50;99.90;;;;;;481601;247;28206;-80
2022/10/08 03:01:11;;;;;;;4.80;3.70;;;11.40;99.90;;;;;;481879;246;28051;-80
2022/10/08 03:03:12;;;;;;;4.57;3.40;;;11.30;99.90;;;;;;481712;247;27967;-79
2022/10/08 03:05:14;;;;;;;3.60;3.30;;;11.30;99.90;;;;;;481446;246;27994;-79
2022/10/08 03:07:15;;;;;;;4.40;3.50;;;11.30;99.90;;;;;;481264;247;28138;-79
2022/10/08 03:09:16;;;;;;;4.67;3.47;;;11.20;99.90;;;;;;481348;247;28151;-80
2022/10/08 03:11:17;;;;;;;3.70;3.20;;;11.20;99.90;;;;;;481592;247;27963;-79
2022/10/08 03:13:19;;;;;;;3.90;3.50;;;11.20;99.90;;;;;;481520;247;28456;-79
2022/10/08 03:15:20;;;;;;;3.70;3.40;;;11.20;99.90;;;;;;481066;247;28473;-79
2022/10/08 03:17:21;;;;;;;3.80;3.20;;;11.20;99.90;;;;;;481018;247;27956;-80
2022/10/08 03:19:22;;;;;;;4.40;4.00;;;11.20;99.90;;;;;;481137;247;28058;-79
2022/10/08 03:21:24;;;;;;;5.10;3.77;;;11.20;99.90;;;;;;481187;246;27981;-79
2022/10/08 03:23:25;;;;;;;4.50;3.80;;;11.20;99.90;;;;;;481226;246;27969;-79
2022/10/08 03:25:26;;;;;;;4.40;3.80;;;11.20;99.90;;;;;;481157;247;27999;-79
2022/10/08 03:27:27;;;;;;;3.27;2.97;;;11.20;99.90;;;;;;481309;243;27950;-79
2022/10/08 03:29:29;;;;;;;7.87;4.00;;;11.20;99.90;;;;;;481346;247;27822;-79
2022/10/08 03:31:30;;;;;;;4.00;3.33;;;11.10;99.90;;;;;;481433;247;27834;-79
2022/10/08 03:33:31;;;;;;;6.67;3.43;;;11.10;99.90;;;;;;481398;247;27878;-80
2022/10/08 03:35:32;;;;;;;4.90;3.37;;;11.10;99.90;;;;;;481415;247;28324;-79
2022/10/08 03:37:34;;;;;;;4.27;3.33;;;11.10;99.90;;;;;;481298;247;28446;-79
2022/10/08 03:39:35;;;;;;;7.20;3.77;;;11.10;99.90;;;;;;481393;246;28372;-78
2022/10/08 03:41:36;;;;;;;4.30;3.40;;;11.00;99.90;;;;;;481323;246;27724;-79
2022/10/08 03:43:37;;;;;;;5.17;4.20;;;11.00;99.90;;;;;;481414;246;27853;-78
2022/10/08 03:45:39;;;;;;;4.33;3.20;;;11.00;99.90;;;;;;481357;246;27850;-78
2022/10/08 03:47:40;;;;;;;2.97;2.67;;;11.00;99.90;;;;;;481353;247;27866;-80
2022/10/08 03:49:41;;;;;;;3.50;2.97;;;11.00;99.90;;;;;;481381;247;27920;-79
2022/10/08 03:51:42;;;;;;;3.07;2.73;;;11.00;99.90;;;;;;481447;246;28088;-79
2022/10/08 03:53:44;;;;;;;3.23;2.77;;;10.90;99.90;;;;;;481461;247;27858;-79
2022/10/08 03:55:45;;;;;;;2.97;2.70;;;10.90;99.90;;;;;;481417;243;27720;-79
2022/10/08 03:57:46;;;;;;;2.80;2.50;;;10.80;99.90;;;;;;481417;247;28015;-79
2022/10/08 03:59:47;;;;;;;2.80;2.50;;;10.80;99.90;;;;;;481452;247;28168;-79
2022/10/08 04:01:49;;;;;;;3.00;2.70;;;10.70;99.90;;;;;;481475;246;28495;-79
2022/10/08 04:03:50;;;;;;;3.17;2.57;;;10.60;99.90;;;;;;481255;246;28061;-79
2022/10/08 04:05:51;;;;;;;2.70;2.50;;;10.60;99.90;;;;;;481282;246;28048;-78
2022/10/08 04:07:52;;;;;;;3.10;2.77;;;10.50;99.90;;;;;;481190;247;27888;-79
2022/10/08 04:09:54;;;;;;;4.30;2.90;;;10.50;99.90;;;;;;481474;246;28103;-79
2022/10/08 04:11:55;;;;;;;3.30;3.00;;;10.40;99.90;;;;;;481368;247;27857;-79
2022/10/08 04:13:56;;;;;;;5.13;3.17;;;10.40;99.90;;;;;;481359;247;27833;-79
2022/10/08 04:15:57;;;;;;;3.90;2.90;;;10.40;99.90;;;;;;481350;247;28045;-79
2022/10/08 04:17:59;;;;;;;2.87;2.63;;;10.40;99.90;;;;;;481452;247;28060;-80
2022/10/08 04:20:00;;;;;;;4.37;2.97;;;10.30;99.90;;;;;;481553;246;28002;-79
2022/10/08 04:22:01;;;;;;;2.87;2.27;;;10.30;99.90;;;;;;481376;247;28552;-79
2022/10/08 04:24:03;;;;;;;2.73;2.53;;;10.30;99.90;;;;;;481319;246;28437;-78
2022/10/08 04:26:04;;;;;;;3.47;3.10;;;10.30;99.90;;;;;;481234;247;28333;-78
2022/10/08 04:28:05;;;;;;;2.70;2.43;;;10.30;99.90;;;;;;481197;247;27879;-80
2022/10/08 04:30:06;;;;;;;3.10;2.40;;;10.30;99.90;;;;;;481248;246;27574;-79
2022/10/08 04:32:08;;;;;;;3.20;2.90;;;10.20;99.90;;;;;;481262;247;27875;-79
2022/10/08 04:34:09;;;;;;;6.17;3.20;;;10.20;99.90;;;;;;481325;247;27875;-79
2022/10/08 04:36:10;;;;;;;3.13;2.83;;;10.20;99.90;;;;;;481295;247;27612;-79
2022/10/08 04:38:11;;;;;;;5.50;3.13;;;10.10;99.90;;;;;;481176;246;27926;-78
2022/10/08 04:40:13;;;;;;;3.07;2.77;;;10.20;99.90;;;;;;481129;247;27854;-80
2022/10/08 04:42:14;;;;;;;2.53;2.27;;;10.10;99.90;;;;;;481271;247;27944;-79
2022/10/08 04:44:15;;;;;;;4.50;2.77;;;10.20;99.90;;;;;;481271;247;28056;-79
2022/10/08 04:46:16;;;;;;;3.00;2.70;;;10.20;99.90;;;;;;481297;247;28205;-78
2022/10/08 04:48:18;;;;;;;2.50;2.30;;;10.20;99.90;;;;;;481310;247;28542;-79
2022/10/08 04:50:19;;;;;;;2.60;2.40;;;10.20;99.90;;;;;;481378;247;28496;-79
2022/10/08 04:52:20;;;;;;;3.13;2.83;;;10.20;99.90;;;;;;481466;247;28400;-80
2022/10/08 04:54:21;;;;;;;4.43;2.80;;;10.10;99.90;;;;;;481346;246;27745;-79
2022/10/08 04:56:23;;;;;;;3.17;2.80;;;10.20;99.90;;;;;;481165;247;29342;-78
2022/10/08 04:58:24;;;;;;;4.83;2.87;;;10.20;99.90;;;;;;481216;247;27855;-78
2022/10/08 05:00:25;;;;;;;8.50;3.93;;;10.20;99.90;;;;;;481200;246;27778;-79
2022/10/08 05:02:26;;;;;;;3.93;2.67;;;10.10;99.90;;;;;;481224;246;28004;-79
2022/10/08 05:04:28;;;;;;;4.33;2.97;;;10.10;99.90;;;;;;481381;247;27507;-79
2022/10/08 05:06:29;;;;;;;3.77;3.13;;;10.00;99.90;;;;;;481274;247;27759;-79
2022/10/08 05:08:30;;;;;;;2.77;2.57;;;10.00;99.90;;;;;;479524;245;27868;-79
2022/10/08 05:10:31;;;;;;;2.97;2.77;;;10.00;99.90;;;;;;471461;249;28593;-79
2022/10/08 05:12:33;;;;;;;3.40;3.10;;;10.00;99.90;;;;;;480254;244;28057;-79
2022/10/08 05:14:34;;;;;;;3.93;2.90;;;10.00;99.90;;;;;;481167;245;28612;-79
2022/10/08 05:16:35;;;;;;;3.27;2.70;;;10.00;99.90;;;;;;481206;247;27723;-79
2022/10/08 05:18:36;;;;;;;3.63;3.23;;;9.90;99.90;;;;;;481452;247;27821;-79
2022/10/08 05:20:38;;;;;;;4.47;3.10;;;9.80;99.90;;;;;;481422;247;27519;-78
2022/10/08 05:22:39;;;;;;;2.93;2.70;;;9.80;99.90;;;;;;482016;244;28184;-79
2022/10/08 05:24:40;;;;;;;3.13;2.80;;;9.80;99.90;;;;;;486801;243;27905;-79
2022/10/08 05:26:41;;;;;;;3.30;3.00;;;9.80;99.90;;;;;;487962;244;28065;-80
2022/10/08 05:28:43;;;;;;;5.10;3.50;;;9.70;99.90;;;;;;487953;244;28066;-78
2022/10/08 05:30:44;;;;;;;4.00;3.60;;;9.60;99.90;;;;;;487945;244;28032;-80
2022/10/08 05:32:45;;;;;;;3.77;3.47;;;9.60;99.90;;;;;;487962;244;28062;-78
2022/10/08 05:34:46;;;;;;;3.40;3.10;;;9.60;99.90;;;;;;487978;244;27964;-78
2022/10/08 05:36:48;;;;;;;4.20;3.20;;;9.60;99.90;;;;;;487665;244;28039;-79
2022/10/08 05:38:49;;;;;;;3.63;3.30;;;9.60;99.90;;;;;;488062;244;27971;-79
2022/10/08 05:40:50;;;;;;;5.33;3.20;;;9.60;99.90;;;;;;487780;244;27959;-79
2022/10/08 05:42:51;;;;;;;4.00;3.60;;;9.60;99.90;;;;;;487788;244;28588;-79
2022/10/08 05:44:53;;;;;;;3.97;2.90;;;9.60;99.90;;;;;;487769;244;28252;-78
2022/10/08 05:46:54;;;;;;;4.20;3.57;;;9.60;99.90;;;;;;487700;244;28550;-79
2022/10/08 05:48:55;;;;;;;3.10;2.77;;;9.50;99.90;;;;;;487763;244;28435;-80
2022/10/08 05:50:56;;;;;;;4.43;3.07;;;9.50;99.90;;;;;;487692;244;27886;-79
2022/10/08 05:52:58;;;;;;;4.00;3.20;;;9.50;99.90;;;;;;486494;244;28035;-79
2022/10/08 05:54:59;;;;;;;3.43;2.87;;;9.50;99.90;;;;;;480831;244;27770;-79
2022/10/08 05:57:00;;;;;;;3.50;3.20;;;9.50;99.90;;;;;;480413;248;27981;-78
2022/10/08 05:59:01;;;;;;;4.70;3.33;;;9.50;99.90;;;;;;480338;248;27827;-79
2022/10/08 06:01:03;;;;;;;3.60;3.30;;;9.60;99.90;;;;;;480305;247;27629;-80
2022/10/08 06:03:04;;;;;;;4.00;2.93;;;9.60;99.90;;;;;;480321;248;28075;-79
2022/10/08 06:05:05;;;;;;;6.10;3.40;;;9.60;99.90;;;;;;480867;248;27980;-80
2022/10/08 06:07:06;;;;;;;3.93;3.40;;;9.60;99.90;;;;;;480714;248;27869;-79
2022/10/08 06:09:08;;;;;;;7.13;3.33;;;9.70;99.90;;;;;;480280;248;27847;-79
2022/10/08 06:11:09;;;;;;;3.40;3.10;;;9.70;99.90;;;;;;479926;247;27871;-78
2022/10/08 06:13:10;;;;;;;3.17;2.83;;;9.70;99.90;;;;;;480032;248;27534;-78
2022/10/08 06:15:11;;;;;;;3.63;3.20;;;9.80;99.90;;;;;;482999;245;27808;-78
2022/10/08 06:17:13;;;;;;;4.33;2.80;;;9.80;99.90;;;;;;481395;243;28069;-78
2022/10/08 06:19:14;;;;;;;4.00;3.13;;;9.80;99.90;;;;;;481092;247;28260;-79
2022/10/08 06:21:15;;;;;;;8.53;3.93;;;9.80;99.90;;;;;;481098;247;27983;-79
2022/10/08 06:23:16;;;;;;;3.73;3.30;;;9.90;99.90;;;;;;481614;247;28443;-79
2022/10/08 06:25:18;;;;;;;3.70;2.90;;;9.90;99.90;;;;;;481662;247;28233;-80
2022/10/08 06:27:19;;;;;;;4.27;2.87;;;9.90;99.90;;;;;;481027;246;28093;-77
2022/10/08 06:29:21;;;;;;;3.40;3.00;;;10.00;99.90;;;;;;481039;247;28083;-78
2022/10/08 06:31:21;;;;;;;3.50;3.00;;;10.00;99.90;;;;;;480985;247;27879;-78
2022/10/08 06:33:23;;;;;;;4.97;3.27;;;10.00;99.90;;;;;;481023;246;27891;-78
2022/10/08 06:35:24;;;;;;;3.10;2.80;;;10.00;99.90;;;;;;481053;246;27839;-79
2022/10/08 06:37:25;;;;;;;3.83;2.87;;;10.00;99.90;;;;;;481695;244;27930;-77
2022/10/08 06:39:26;;;;;;;4.10;3.03;;;10.10;99.90;;;;;;483387;244;27640;-78
2022/10/08 06:41:29;;;;;;;3.20;2.90;;;10.10;99.90;;;;;;483934;244;27824;-78
2022/10/08 06:43:29;;;;;;;3.00;2.70;;;10.10;99.90;;;;;;483582;242;27888;-77
2022/10/08 06:45:30;;;;;;;6.77;2.80;;;10.10;99.90;;;;;;485290;242;28374;-78
2022/10/08 06:47:31;;;;;;;4.00;3.27;;;10.20;99.90;;;;;;487372;242;27950;-79
2022/10/08 06:49:33;;;;;;;4.80;3.43;;;10.20;99.90;;;;;;487451;244;28284;-78
2022/10/08 06:51:36;;;;;;;3.63;3.00;;;;;;;;;;487545;244;28428;-81
2022/10/08 06:53:37;;;;;;;3.10;2.80;;;10.30;99.90;;;;;;487683;244;26908;-78
2022/10/08 06:55:39;;;;;;;3.73;3.33;;;10.30;99.90;;;;;;487661;244;28019;-79
2022/10/08 06:57:40;;;;;;;4.43;3.67;;;10.40;99.90;;;;;;487677;244;28262;-79
2022/10/08 06:59:41;;;;;;;5.23;3.57;;;10.40;99.90;;;;;;487699;244;28403;-79
2022/10/08 07:01:42;;;;;;;3.70;2.60;;;10.40;99.90;;;;;;487633;244;28409;-79
2022/10/08 07:03:44;;;;;;;4.73;3.03;;;10.40;99.90;;;;;;487465;244;27914;-78
2022/10/08 07:05:45;;;;;;;3.87;3.27;;;10.40;99.90;;;;;;487422;244;27941;-80
2022/10/08 07:07:46;;;;;;;4.20;3.13;;;10.40;99.90;;;;;;487347;244;27607;-78
2022/10/08 07:09:47;;;;;;;4.30;3.87;;;10.40;99.90;;;;;;487511;244;28035;-79
2022/10/08 07:11:49;;;;;;;3.10;2.90;;;10.50;99.90;;;;;;486713;244;27947;-79
2022/10/08 07:13:50;;;;;;;3.40;3.10;;;10.40;99.90;;;;;;481021;246;28171;-78
2022/10/08 07:15:51;;;;;;;3.73;2.90;;;10.40;99.90;;;;;;480963;243;28035;-79
2022/10/08 07:17:52;;;;;;;3.13;2.83;;;10.40;99.90;;;;;;480887;247;27855;-79
2022/10/08 07:19:54;;;;;;;7.43;3.43;;;10.40;99.90;;;;;;480975;246;28314;-79
2022/10/08 07:21:55;;;;;;;4.40;3.30;;;10.40;99.90;;;;;;480925;246;28544;-79
2022/10/08 07:23:56;;;;;;;6.63;3.07;;;10.40;99.90;;;;;;481153;247;28449;-79
2022/10/08 07:25:57;;;;;;;3.70;3.30;;;10.40;99.90;;;;;;480908;247;28474;-78
2022/10/08 07:27:59;;;;;;;3.90;3.10;;;10.40;99.90;;;;;;480904;247;28108;-79
2022/10/08 07:30:02;;;;;;;3.37;2.80;;;;;;;;;;480073;246;46972;-79
2022/10/08 07:32:09;;;;;;;3.70;3.00;;;10.50;99.90;;;;;;481050;247;27097;-79
2022/10/08 07:34:10;;;;;;;4.47;3.07;;;10.50;99.90;;;;;;479944;244;26948;-78
2022/10/08 07:36:11;;;;;;;3.50;3.20;;;10.60;99.90;;;;;;483256;240;28583;-70
2022/10/08 07:38:13;;;;;;;3.57;3.10;;;10.50;99.90;;;;;;477798;243;28098;-72
2022/10/08 07:40:14;;;;;;;2.70;2.50;;;10.50;99.90;;;;;;487006;244;27846;-71
2022/10/08 07:42:15;;;;;;;4.17;3.27;;;10.60;99.90;;;;;;489069;242;27924;-71
2022/10/08 07:44:18;;;;;;;5.20;3.30;;;;;;;;;;491473;241;28047;-71
2022/10/08 07:46:19;;;;;;;4.93;2.53;;;10.60;99.90;;;;;;491474;242;26785;-71
2022/10/08 07:48:20;;;;;;;5.33;3.33;;;10.60;99.90;;;;;;491509;242;27830;-68
2022/10/08 07:50:23;;;;;;;5.37;3.10;;;;;;;;;;491502;241;27487;-70
2022/10/08 07:52:24;;;;;;;4.47;3.20;;;10.70;99.90;;;;;;490760;242;26658;-69
2022/10/08 07:54:25;;;;;;;3.00;2.67;;;10.70;99.90;;;;;;486101;243;27984;-70
2022/10/08 07:56:27;;;;;;;2.47;2.27;;;10.70;99.90;;;;;;483913;244;28023;-72
2022/10/08 07:58:28;;;;;;;3.80;2.63;;;10.80;99.90;;;;;;486293;244;28432;-70
2022/10/08 08:00:34;;;;;;;4.03;2.43;;;10.80;99.90;;;;;;486744;244;28486;-71
2022/10/08 08:02:35;;;;;;;2.93;2.53;;;10.80;99.90;;;;;;486739;240;27219;-71
2022/10/08 08:04:38;;;;;;;3.80;2.60;;;;;;;;;;486766;244;28383;-71
2022/10/08 08:06:39;;;;;;;3.27;2.40;;;10.90;99.90;;;;;;486729;244;27267;-72
2022/10/08 08:08:40;;;;;;;4.73;2.43;;;10.90;99.90;;;;;;486786;244;28230;-70
2022/10/08 08:10:42;;;;;;;3.10;2.80;;;10.90;99.90;;;;;;486746;244;27752;-71
2022/10/08 08:12:48;;;;;;;3.33;2.60;;;;;;;;;;486754;244;27780;-72
2022/10/08 08:14:51;;;;;;;5.00;3.13;;;11.10;99.90;;;;;;486770;244;26830;-70
2022/10/08 08:16:52;;;;;;;2.93;2.63;;;11.00;99.90;;;;;;481516;237;26925;-72
2022/10/08 08:18:55;;;;;;;2.60;2.33;;;;;;;;;;476745;249;27809;-71
2022/10/08 08:20:57;;;;;;;4.33;2.70;;;11.20;99.90;;;;;;476843;243;26880;-69
2022/10/08 08:22:58;;;;;;;5.93;2.60;;;11.20;99.90;;;;;;475945;250;28137;-68
2022/10/08 08:24:59;;;;;;;4.77;2.90;;;11.30;99.90;;;;;;475098;250;27985;-69
2022/10/08 08:27:11;;;;;;;2.67;2.40;;;;;;;;;;475047;250;28446;-71
2022/10/08 08:29:23;;;;;;;2.77;2.53;;;;;;;;;;475106;250;26830;-72
2022/10/08 08:31:34;;;;;;;5.60;2.80;;;;;;;;;;475087;250;27446;-70
2022/10/08 08:33:39;;;;;;;5.10;2.80;;;;;;;;;;472380;249;26708;-69
2022/10/08 08:35:40;;;;;;;2.50;2.30;;;11.60;99.90;;;;;;480239;247;26881;-70
2022/10/08 08:37:43;;;;;;;5.80;2.90;;;11.70;99.90;;;;;;476887;247;27957;-69
2022/10/08 08:39:46;;;;;;;3.30;2.00;;;;;;;;;;476779;248;26625;-70
2022/10/08 08:41:47;;;;;;;3.60;2.27;;;11.90;99.90;;;;;;476753;248;26692;-69
2022/10/08 08:43:50;;;;;;;7.80;2.33;;;;;;;;;;476758;248;28067;-69
2022/10/08 08:45:51;;;;;;;2.40;1.90;;;12.10;99.90;;;;;;476722;248;26945;-70
2022/10/08 08:47:52;;;;;;;2.57;2.40;;;12.10;99.90;;;;;;476585;248;28117;-70
2022/10/08 08:49:53;;;;;;;2.43;2.23;;;12.20;99.90;;;;;;476695;248;28011;-69
2022/10/08 08:51:55;;;;;;;5.73;2.20;;;12.30;99.90;;;;;;476648;247;28229;-69
2022/10/08 08:53:56;;;;;;;2.20;1.90;;;12.50;99.90;;;;;;476724;248;28095;-69
2022/10/08 08:55:57;;;;;;;4.30;2.03;;;12.60;99.90;;;;;;476732;248;28077;-66
2022/10/08 08:57:58;;;;;;;2.93;2.67;;;12.50;99.90;;;;;;476700;246;28148;-71
2022/10/08 09:00:00;;;;;;;1.97;1.77;;;12.60;99.90;;;;;;476756;248;28438;-70
2022/10/08 09:02:01;;;;;;;6.20;2.40;;;12.70;99.90;;;;;;476748;248;28650;-70
2022/10/08 09:04:02;;;;;;;7.93;2.37;;;12.90;99.90;;;;;;477290;247;28700;-69
2022/10/08 09:06:03;;;;;;;3.27;1.90;;;13.00;99.90;;;;;;481638;246;28439;-70
2022/10/08 09:08:05;;;;;;;3.00;2.13;;;13.10;99.90;;;;;;481615;247;28408;-70
2022/10/08 09:10:08;;;;;;;6.70;2.50;;;13.20;99.90;;;;;;481794;246;28096;-69
2022/10/08 09:12:07;;;;;;;3.90;1.97;;;13.20;99.90;;;;;;482015;246;28251;-70
2022/10/08 09:14:19;;;;;;;3.13;2.23;;;;;;;;;;482095;246;28103;-70
2022/10/08 09:16:11;;;;;;;2.77;2.03;;;13.30;99.90;;;;;;480321;246;27380;-70
2022/10/08 09:18:12;;;;;;;4.67;1.90;;;13.40;99.90;;;;;;482089;245;28990;-70
2022/10/08 09:20:14;;;;;;;5.20;2.10;;;13.40;99.90;;;;;;482103;246;28619;-69
2022/10/08 09:22:15;;;;;;;3.00;1.80;;;13.40;99.90;;;;;;482114;246;28205;-71
2022/10/08 09:24:16;;;;;;;7.27;2.20;;;13.50;99.90;;;;;;482104;246;28186;-69
2022/10/08 09:26:17;;;;;;;3.27;2.30;;;13.50;99.90;;;;;;482046;246;28136;-67
2022/10/08 09:28:20;;;;;;;4.12;2.10;;;;;;;;;;480363;246;36061;-69
2022/10/08 09:30:21;;;;;;;4.17;2.33;;;13.60;99.90;;;;;;482101;246;26297;-69
2022/10/08 09:32:23;;;;;;;3.67;1.90;;;12.90;99.90;;;;;;482109;246;28109;-69
2022/10/08 09:34:24;;;;;;;4.00;2.00;;;13.80;99.90;;;;;;482100;246;28412;-70
2022/10/08 09:38:50;;;;;;;2.67;1.77;;;13.80;99.90;;;;;;485513;240;28196;-72
2022/10/08 09:40:52;;;;;;;3.73;1.50;;;13.70;99.90;;;;;;477601;242;28353;-70
2022/10/08 09:42:53;;;;;;;3.43;1.60;;;13.80;99.90;;;;;;475354;249;28233;-69
2022/10/08 09:45:02;;;;;;;2.80;2.00;;;;;;;;;;475345;249;28825;-71
2022/10/08 09:47:00;;;;;;;5.53;1.77;;;13.70;99.90;;;;;;475112;250;26986;-70
2022/10/08 09:49:02;;;;;;;5.87;1.90;;;;;;;;;;475369;249;28104;-69
2022/10/08 09:51:03;;;;;;;7.43;1.80;;;13.80;99.90;;;;;;475370;250;26757;-69
2022/10/08 09:53:04;;;;;;;2.87;1.80;;;13.80;99.90;;;;;;475368;249;28240;-69
2022/10/08 09:55:06;;;;;;;2.60;1.60;;;13.90;99.90;;;;;;475360;249;28240;-70
2022/10/08 09:57:07;;;;;;;3.87;1.90;;;13.80;99.90;;;;;;475336;249;28222;-68
2022/10/08 09:59:08;;;;;;;4.43;1.73;;;13.50;99.90;;;;;;475381;249;28290;-69
2022/10/08 10:01:09;;;;;;;2.67;1.30;;;13.50;99.90;;;;;;475367;249;28112;-69
2022/10/08 10:03:11;;;;;;;4.43;1.80;;;13.50;99.90;;;;;;475370;249;28201;-68
2022/10/08 10:05:12;;;;;;;5.30;1.63;;;13.70;99.90;;;;;;475376;249;28160;-69
2022/10/08 10:07:13;;;;;;;2.83;1.70;;;13.60;99.90;;;;;;475335;249;28237;-68
2022/10/08 10:09:14;;;;;;;2.70;1.57;;;13.70;99.90;;;;;;475348;249;28189;-69
2022/10/08 10:11:16;;;;;;;1.73;1.50;;;13.80;99.90;;;;;;475360;249;28972;-68
2022/10/08 10:13:17;;;;;;;2.03;1.40;;;13.90;99.90;;;;;;475369;249;28661;-68
2022/10/08 10:15:18;;;;;;;4.80;1.57;;;13.60;99.90;;;;;;475388;249;28673;-69
2022/10/08 10:17:19;;;;;;;1.50;1.40;;;13.70;99.90;;;;;;475357;249;28324;-68
2022/10/08 10:19:21;;;;;;;3.50;1.43;;;14.40;99.90;;;;;;475368;249;28097;-70
2022/10/08 10:21:22;;;;;;;5.07;1.67;;;14.30;99.90;;;;;;475375;249;28234;-68
2022/10/08 10:23:23;;;;;;;2.03;1.40;;;14.20;99.90;;;;;;475376;249;28108;-69
2022/10/08 10:25:24;;;;;;;5.83;1.40;;;14.30;99.90;;;;;;475389;249;28133;-69
2022/10/08 10:27:26;;;;;;;2.20;1.20;;;15.20;99.90;;;;;;475355;249;28112;-68
2022/10/08 10:29:27;;;;;;;2.60;1.40;;;14.50;99.90;;;;;;475365;249;28459;-69
2022/10/08 10:31:28;;;;;;;1.77;1.30;;;14.50;99.90;;;;;;475365;250;28304;-70
2022/10/08 10:33:30;;;;;;;2.47;1.30;;;14.70;99.90;;;;;;475352;249;28542;-68
2022/10/08 10:35:32;;;;;;;1.40;1.30;;;13.90;99.90;;;;;;482701;246;28262;-68
2022/10/08 10:37:33;;;;;;;1.97;1.40;;;14.30;99.90;;;;;;483575;245;29261;-68
2022/10/08 10:39:34;;;;;;;2.50;1.67;;;14.70;99.90;;;;;;483593;245;28959;-68